Wednesday, October 18, 2017, 3:38 AM EDT
Back to Local

KLPR, Lorain County Regional Airport

Location: Elyria, OH, United States Lat: 41.35
Local Time: 3:38 AM EDT ( 7:38 GMT) Lon: -82.183
Time Zone: US/Eastern Elev: 793 ft

Show me the last for .
Show Decoded

2017-10-18 02:53 METAR KLPR 180653Z AUTO 00000KT 10SM CLR 07/02 A3027 RMK AO2 SLP250 T00670017 =
2017-10-18 01:53 METAR KLPR 180553Z AUTO 20004KT 10SM CLR 08/02 A3026 RMK AO2 SLP248 T00780017
                 10128 20078 51003 =
2017-10-18 00:53 METAR KLPR 180453Z AUTO 20004KT 10SM CLR 08/02 A3026 RMK AO2 SLP248 T00830017 =
2017-10-17 23:53 METAR KLPR 180353Z AUTO 19004KT 10SM CLR 08/02 A3026 RMK AO2 SLP248 T00780022 =
2017-10-17 22:53 METAR KLPR 180253Z AUTO 22006KT 10SM CLR 09/02 A3025 RMK AO2 SLPNO T00940022
                 52013 =
2017-10-17 21:53 METAR KLPR 180153Z AUTO 22006KT 10SM CLR 10/02 A3024 RMK AO2 SLPNO T01000022 =
2017-10-17 20:53 METAR KLPR 180053Z AUTO 21006KT 10SM CLR 12/02 A3023 RMK AO2 SLPNO T01170022 =
2017-10-17 19:53 METAR KLPR 172353Z AUTO 21005KT 10SM CLR 13/02 A3021 RMK AO2 SLPNO T01280022
                 10194 20128 53002 =
2017-10-17 18:53 METAR KLPR 172253Z AUTO 22005KT 10SM CLR 14/02 A3020 RMK AO2 SLPNO T01390022 =
2017-10-17 17:53 METAR KLPR 172153Z AUTO 25010KT 10SM CLR 18/02 A3020 RMK AO2 SLPNO T01780017 =
2017-10-17 16:53 METAR KLPR 172053Z AUTO 24012KT 10SM CLR 19/02 A3021 RMK AO2 SLPNO T01890017
                 56015 =
2017-10-17 15:53 METAR KLPR 171953Z AUTO 23011G18KT 10SM CLR 19/02 A3022 RMK AO2 SLPNO T01890017
                 =
2017-10-17 14:53 METAR KLPR 171853Z AUTO 26011G21KT 10SM CLR 19/02 A3023 RMK AO2 SLPNO T01890017
                 =
2017-10-17 13:53 METAR KLPR 171753Z AUTO 25011KT 10SM CLR 18/02 A3025 RMK AO2 SLPNO T01830022
                 58018 =
2017-10-17 12:53 METAR KLPR 171653Z AUTO 24012G18KT 10SM CLR 17/02 A3028 RMK AO2 SLPNO T01720022
                 =
2017-10-17 11:53 METAR KLPR 171553Z AUTO 25011G19KT 10SM CLR 16/02 A3029 RMK AO2 SLPNO T01560017
                 =
2017-10-17 10:53 METAR KLPR 171453Z AUTO 10SM CLR A3030 RMK AO2 SLPNO 58003 PWINO FZRANO $ =
2017-10-17 09:53 METAR KLPR 171353Z AUTO A3031 RMK AO2 SLPNO PWINO FZRANO $ =
2017-10-17 08:53 METAR KLPR 171253Z AUTO A3031 RMK AO2 SLPNO PWINO FZRANO $ =
2017-10-17 07:53 METAR KLPR 171153Z AUTO A3031 RMK AO2 SLPNO PWINO FZRANO $ =
2017-10-17 06:53 METAR KLPR 171053Z AUTO A3031 RMK AO2 SLPNO PWINO FZRANO $ =
2017-10-17 05:53 METAR KLPR 170953Z AUTO A3031 RMK AO2 SLPNO PWINO FZRANO $ =
2017-10-17 04:53 METAR KLPR 170853Z AUTO A3030 RMK AO2 SLPNO 53003 PWINO FZRANO $ =
2017-10-17 03:53 METAR KLPR 170753Z AUTO A3029 RMK AO2 SLPNO PWINO FZRANO $ =

Support USWX by starting your Amazon purchase here.